Time;durP1;ratioP1;P1;durP2;ratioP2;P2;SDS_P1;SDS_P2;PMS_P1;PMS_P2;Temp;Humidity;BMP_temperature;BMP_pressure;BME280_temperature;BME280_humidity;BME280_pressure;Samples;Min_cycle;Max_cycle;Signal;HPM_P1;HPM_P2
2023/05/04 00:00:59;;;;;;;14.07;12.13;;;8.90;99.90;;;;;;5074224;28;20185;-90
2023/05/04 00:03:27;;;;;;;13.57;11.90;;;8.90;99.90;;;;;;5062292;28;20182;-92
2023/05/04 00:05:53;;;;;;;12.48;11.18;;;8.80;99.90;;;;;;5053227;28;20212;-92
2023/05/04 00:08:20;;;;;;;14.90;12.20;;;8.90;99.90;;;;;;5117213;22;20232;-92
2023/05/04 00:10:47;;;;;;;13.98;11.98;;;8.80;99.90;;;;;;5034361;28;20199;-92
2023/05/04 00:13:14;;;;;;;13.43;12.02;;;8.80;99.90;;;;;;5038300;28;20206;-90
2023/05/04 00:20:54;;;;;;;13.80;12.25;;;8.80;99.90;;;;;;5487632;22;20236;-93
2023/05/04 00:23:21;;;;;;;14.82;12.82;;;8.80;99.90;;;;;;5055902;28;20210;-92
2023/05/04 00:25:47;;;;;;;14.27;12.77;;;8.90;99.90;;;;;;5044724;28;20208;-92
2023/05/04 00:33:25;;;;;;;13.48;12.00;;;8.90;99.90;;;;;;5237240;22;20217;-91
2023/05/04 00:35:54;;;;;;;14.05;12.45;;;8.80;99.90;;;;;;5058559;28;20187;-92
2023/05/04 00:38:20;;;;;;;13.57;12.05;;;8.80;99.90;;;;;;5069442;28;20201;-90
2023/05/04 00:43:23;;;;;;;13.95;12.40;;;8.70;99.90;;;;;;6088314;22;20453;-90
2023/05/04 00:45:50;;;;;;;18.85;12.57;;;8.70;99.90;;;;;;5057218;28;20232;-93
2023/05/04 00:48:17;;;;;;;15.10;11.93;;;8.70;99.90;;;;;;5040152;28;20197;-92
2023/05/04 00:50:44;;;;;;;14.05;12.65;;;8.70;99.90;;;;;;5053446;28;20184;-92
2023/05/04 00:53:12;;;;;;;14.48;12.02;;;8.60;99.90;;;;;;5055319;28;20247;-92
2023/05/04 00:55:40;;;;;;;14.52;13.02;;;8.60;99.90;;;;;;5073918;28;20196;-92
2023/05/04 01:03:18;;;;;;;13.65;12.25;;;8.60;99.90;;;;;;6207844;22;20172;-93
2023/05/04 01:05:53;;;;;;;13.45;12.13;;;8.60;99.90;;;;;;5071223;28;20237;-92
2023/05/04 01:08:27;;;;;;;14.73;12.30;;;8.50;99.90;;;;;;5074156;28;20181;-92
2023/05/04 04:05:57;;;;;;;19.17;15.98;;;7.20;99.90;;;;;;5556682;22;20239;-92
2023/05/04 04:10:59;;;;;;;19.77;16.98;;;7.30;99.90;;;;;;5390329;23;20301;-92
2023/05/04 04:16:01;;;;;;;20.10;16.85;;;7.30;99.90;;;;;;5543196;23;20239;-93
2023/05/04 04:23:40;;;;;;;20.95;16.52;;;7.60;99.90;;;;;;6152983;22;20186;-93
2023/05/04 04:33:53;;;;;;;19.70;16.80;;;7.90;99.90;;;;;;5805103;23;20250;-93
2023/05/04 04:44:10;;;;;;;19.27;16.35;;;7.80;99.90;;;;;;5763783;23;20223;-91
2023/05/04 08:08:36;;;;;;;6.32;5.72;;;15.40;51.70;;;;;;5379984;22;20227;-94
2023/05/04 08:11:03;;;;;;;6.18;5.60;;;15.50;51.90;;;;;;5001670;28;20187;-94
2023/05/04 08:13:30;;;;;;;8.15;5.78;;;15.50;48.70;;;;;;5359353;23;20215;-95
2023/05/04 08:16:00;;;;;;;8.05;5.40;;;15.70;48.40;;;;;;5024163;28;20188;-95
2023/05/04 08:18:28;;;;;;;6.70;5.30;;;15.90;47.10;;;;;;5196958;23;20232;-96
2023/05/04 08:20:55;;;;;;;5.22;4.72;;;16.00;44.70;;;;;;4984836;28;20266;-97
2023/05/04 08:23:22;;;;;;;4.70;4.28;;;16.20;34.30;;;;;;5017767;28;20230;-94
2023/05/04 08:28:35;;;;;;;4.50;4.10;;;16.40;31.40;;;;;;5008024;28;20189;-95
2023/05/04 08:31:02;;;;;;;5.60;4.85;;;16.40;33.20;;;;;;5400667;23;20202;-96
2023/05/04 08:33:30;;;;;;;3.90;3.50;;;16.20;33.40;;;;;;5244404;23;20253;-91
2023/05/04 08:39:00;;;;;;;5.47;4.68;;;16.20;29.20;;;;;;5509148;23;20436;-94
2023/05/04 08:59:40;;;;;;;4.60;4.20;;;17.90;24.70;;;;;;5685908;22;20224;-91
2023/05/04 10:24:38;;;;;;;4.57;4.18;;;24.00;11.10;;;;;;3911386;22;20409;-91
2023/05/04 10:29:43;;;;;;;4.07;3.70;;;23.60;13.10;;;;;;5958555;23;20227;-92
2023/05/04 10:32:18;;;;;;;4.28;3.70;;;23.80;11.80;;;;;;5263569;22;20243;-93
2023/05/04 10:37:21;;;;;;;5.40;4.00;;;23.80;11.80;;;;;;5376080;23;20234;-92
2023/05/04 10:39:52;;;;;;;4.57;3.90;;;23.60;10.80;;;;;;5311122;22;20236;-92
2023/05/04 10:42:20;;;;;;;4.03;3.60;;;23.30;13.10;;;;;;5265596;23;20216;-92
2023/05/04 10:44:53;;;;;;;4.00;3.70;;;23.70;11.80;;;;;;5347182;23;20219;-89
2023/05/04 10:50:04;;;;;;;3.92;3.53;;;23.30;11.60;;;;;;5640406;23;20231;-92
2023/05/04 10:52:32;;;;;;;4.70;3.35;;;23.10;13.00;;;;;;4982689;28;20247;-95
2023/05/04 10:55:00;;;;;;;3.90;3.60;;;22.90;11.90;;;;;;4995334;28;20235;-96
2023/05/04 10:57:29;;;;;;;4.82;3.75;;;22.80;11.20;;;;;;5012904;28;20215;-95
2023/05/04 10:59:58;;;;;;;3.80;3.33;;;22.70;12.70;;;;;;5010279;28;20199;-95
2023/05/04 11:02:27;;;;;;;4.28;3.80;;;23.10;12.20;;;;;;5015725;28;20211;-95
2023/05/04 11:05:05;;;;;;;3.95;3.33;;;22.80;11.90;;;;;;5018396;28;20210;-96
2023/05/04 11:07:37;;;;;;;4.68;3.40;;;22.30;13.10;;;;;;5017192;28;20212;-95
2023/05/04 11:10:04;;;;;;;4.47;3.67;;;22.10;12.30;;;;;;5026226;28;20258;-95
2023/05/04 11:12:32;;;;;;;4.18;3.58;;;22.10;12.30;;;;;;5022091;28;20188;-96
2023/05/04 11:15:09;;;;;;;9.65;3.92;;;22.10;13.00;;;;;;4997071;28;20211;-96
2023/05/04 11:17:45;;;;;;;3.90;3.45;;;22.00;14.20;;;;;;5014076;28;20229;-96
2023/05/04 11:20:19;;;;;;;4.30;3.58;;;22.20;12.40;;;;;;5022262;28;20206;-96
2023/05/04 11:22:46;;;;;;;3.30;3.00;;;22.10;13.30;;;;;;4997185;28;20206;-95
2023/05/04 11:25:13;;;;;;;3.53;3.22;;;21.90;12.20;;;;;;4981695;28;20204;-96
2023/05/04 11:27:41;;;;;;;4.65;3.20;;;21.90;12.20;;;;;;5000358;28;20288;-95
2023/05/04 11:30:22;;;;;;;8.32;3.50;;;21.80;12.10;;;;;;4996793;28;20721;-95
2023/05/04 11:32:52;;;;;;;4.43;3.60;;;21.60;12.00;;;;;;5005375;28;20200;-92
2023/05/04 11:35:21;;;;;;;4.35;3.95;;;21.70;12.10;;;;;;5013633;28;20238;-91
2023/05/04 11:37:49;;;;;;;6.15;5.18;;;21.40;14.80;;;;;;5004524;28;20193;-94
2023/05/04 11:40:18;;;;;;;6.82;5.90;;;21.60;15.00;;;;;;5204160;22;20298;-94
2023/05/04 11:42:45;;;;;;;5.57;4.93;;;21.50;15.40;;;;;;4977989;28;20193;-96
2023/05/04 11:47:59;;;;;;;4.55;3.70;;;21.60;14.90;;;;;;4966889;28;20228;-96
2023/05/04 11:50:28;;;;;;;6.18;4.68;;;21.70;12.10;;;;;;4951397;28;20237;-96
2023/05/04 11:53:42;;;;;;;6.32;4.90;;;21.50;15.00;;;;;;4983582;28;20208;-96
2023/05/04 11:56:09;;;;;;;5.88;5.10;;;21.40;15.60;;;;;;5003788;28;20203;-94
2023/05/04 11:58:36;;;;;;;5.75;4.63;;;21.30;15.40;;;;;;5004086;28;20295;-96
2023/05/04 12:01:05;;;;;;;6.45;4.80;;;21.30;16.20;;;;;;5005832;28;20199;-96
2023/05/04 12:03:36;;;;;;;5.65;4.88;;;21.30;16.00;;;;;;4951058;28;20208;-96
2023/05/04 12:06:03;;;;;;;7.35;5.30;;;21.30;15.40;;;;;;4963730;28;20221;-96
2023/05/04 12:08:33;;;;;;;7.00;6.20;;;21.30;16.50;;;;;;4982993;28;20671;-96
2023/05/04 12:11:23;;;;;;;4.70;4.20;;;21.30;16.80;;;;;;4970874;28;20215;-96
2023/05/04 12:14:18;;;;;;;4.53;4.10;;;21.10;14.10;;;;;;4969803;28;20550;-96
2023/05/04 12:17:02;;;;;;;5.88;4.40;;;21.10;14.70;;;;;;4983887;28;20212;-94
2023/05/04 12:19:30;;;;;;;4.32;3.92;;;21.30;14.20;;;;;;4971199;28;20217;-94
2023/05/04 12:22:01;;;;;;;6.20;4.25;;;21.30;14.10;;;;;;4985332;28;20188;-96
2023/05/04 12:24:28;;;;;;;6.13;4.00;;;21.20;16.50;;;;;;4986616;28;20239;-93
2023/05/04 12:26:57;;;;;;;5.47;4.22;;;21.40;14.90;;;;;;4995263;28;20231;-94
2023/05/04 12:29:23;;;;;;;12.15;7.10;;;21.40;14.50;;;;;;4980620;28;20256;-95
2023/05/04 12:31:50;;;;;;;4.93;3.83;;;21.40;14.80;;;;;;4978436;28;20205;-96
2023/05/04 12:34:19;;;;;;;6.05;4.20;;;21.20;14.50;;;;;;4974967;28;20671;-93
2023/05/04 12:36:46;;;;;;;4.88;4.30;;;21.30;14.70;;;;;;4975099;28;20204;-93
2023/05/04 12:39:13;;;;;;;5.07;3.42;;;21.30;14.60;;;;;;4975968;28;20212;-96
2023/05/04 12:41:41;;;;;;;5.85;4.60;;;21.40;13.70;;;;;;4985152;28;20193;-93
2023/05/04 12:44:10;;;;;;;4.72;3.60;;;21.50;12.00;;;;;;4983985;28;20816;-95
2023/05/04 12:46:37;;;;;;;4.65;3.80;;;21.40;13.20;;;;;;4980874;28;20228;-94
2023/05/04 12:49:03;;;;;;;7.15;4.60;;;21.30;14.20;;;;;;4978820;28;20276;-92
2023/05/04 12:51:32;;;;;;;5.63;5.05;;;21.10;15.10;;;;;;4989306;28;20196;-95
2023/05/04 12:53:59;;;;;;;5.68;4.47;;;21.10;14.90;;;;;;4968949;28;20256;-94
2023/05/04 12:56:26;;;;;;;5.85;4.95;;;21.20;14.80;;;;;;4972237;28;20271;-92
2023/05/04 12:58:52;;;;;;;7.07;5.47;;;21.20;14.30;;;;;;4993951;28;20188;-91
2023/05/04 13:01:19;;;;;;;6.22;4.63;;;21.10;14.70;;;;;;4994702;28;20199;-93
2023/05/04 13:03:46;;;;;;;4.18;3.78;;;21.20;16.30;;;;;;4994121;28;20268;-93
2023/05/04 13:08:50;;;;;;;5.57;3.60;;;21.40;13.10;;;;;;5164073;22;20281;-92
2023/05/04 13:11:18;;;;;;;10.13;5.95;;;21.50;13.00;;;;;;5037086;28;20195;-93
2023/05/04 13:13:45;;;;;;;5.45;4.20;;;21.50;14.60;;;;;;5035789;28;20211;-90
2023/05/04 13:16:13;;;;;;;5.85;3.90;;;21.30;14.00;;;;;;5021396;28;20203;-95
2023/05/04 13:18:39;;;;;;;6.13;3.78;;;21.20;14.10;;;;;;5009836;28;20231;-92
2023/05/04 13:21:06;;;;;;;7.32;3.88;;;21.30;13.20;;;;;;5021369;28;20264;-94
2023/05/04 13:23:33;;;;;;;5.10;4.60;;;21.30;13.70;;;;;;5014115;28;20195;-93
2023/05/04 13:26:02;;;;;;;9.80;6.70;;;21.30;14.40;;;;;;4994985;28;20253;-94
2023/05/04 13:28:28;;;;;;;8.38;4.95;;;21.30;14.40;;;;;;4999355;28;20200;-93
2023/05/04 13:30:56;;;;;;;8.38;4.95;;;21.40;14.50;;;;;;4999655;28;20219;-93
2023/05/04 13:33:25;;;;;;;7.93;4.97;;;21.50;14.60;;;;;;4996202;28;20230;-94
2023/05/04 13:35:52;;;;;;;6.68;4.30;;;21.50;14.70;;;;;;4990227;28;20221;-94
2023/05/04 13:38:19;;;;;;;5.97;3.53;;;21.60;13.90;;;;;;5010508;28;20291;-95
2023/05/04 13:40:46;;;;;;;5.30;3.30;;;21.40;11.90;;;;;;5014299;28;20195;-93
2023/05/04 13:43:14;;;;;;;3.67;3.38;;;21.50;11.90;;;;;;5017600;28;20184;-93
2023/05/04 13:45:41;;;;;;;4.75;3.35;;;21.60;12.00;;;;;;5010768;28;20255;-95
2023/05/04 13:48:08;;;;;;;4.70;3.00;;;21.70;12.10;;;;;;5017570;28;20998;-94
2023/05/04 13:50:35;;;;;;;4.07;3.22;;;21.80;12.10;;;;;;5014468;28;20211;-95
2023/05/04 13:53:02;;;;;;;8.30;3.60;;;21.80;12.10;;;;;;5011203;28;20200;-91
2023/05/04 13:55:31;;;;;;;6.15;3.80;;;21.90;13.40;;;;;;5000565;28;20199;-91
2023/05/04 13:57:59;;;;;;;5.47;3.47;;;21.90;12.20;;;;;;5013135;28;20211;-91
2023/05/04 14:00:29;;;;;;;7.75;3.70;;;21.70;13.50;;;;;;4994398;28;20199;-93
2023/05/04 14:02:56;;;;;;;4.32;3.47;;;21.70;12.10;;;;;;5008463;28;20262;-95
2023/05/04 14:05:23;;;;;;;7.93;3.10;;;21.70;12.30;;;;;;5022908;28;20227;-95
2023/05/04 14:07:51;;;;;;;5.10;3.50;;;21.50;12.00;;;;;;5221335;23;20234;-91
2023/05/04 14:12:53;;;;;;;5.63;4.15;;;21.50;13.00;;;;;;5407607;23;21198;-94
2023/05/04 14:38:59;;;;;;;5.07;4.07;;;21.00;15.60;;;;;;5034284;23;20235;-94
2023/05/04 14:41:32;;;;;;;5.20;3.60;;;21.00;15.80;;;;;;5012426;28;20194;-92
2023/05/04 14:46:41;;;;;;;5.32;3.90;;;21.00;15.90;;;;;;5010025;28;20227;-93
2023/05/04 14:56:54;;;;;;;5.28;3.50;;;20.80;16.00;;;;;;5958295;22;20234;-95
2023/05/04 15:09:47;;;;;;;4.07;3.60;;;20.80;16.10;;;;;;5815171;23;20250;-92
2023/05/04 15:17:52;;;;;;;7.55;3.88;;;20.90;15.60;;;;;;5121895;23;20229;-94
2023/05/04 15:36:08;;;;;;;5.40;4.57;;;20.90;16.30;;;;;;5030023;23;20267;-92
2023/05/04 15:38:35;;;;;;;6.45;4.28;;;20.80;16.40;;;;;;4991351;28;20201;-96
2023/05/04 15:46:26;;;;;;;6.22;3.80;;;20.70;16.70;;;;;;4993585;28;20204;-91
2023/05/04 15:59:27;;;;;;;6.13;4.20;;;20.50;16.90;;;;;;4982419;28;20200;-94
2023/05/04 16:01:55;;;;;;;6.20;4.10;;;20.50;16.90;;;;;;4974699;28;20200;-95
2023/05/04 16:13:02;;;;;;;4.72;3.92;;;20.30;16.90;;;;;;4944384;29;20316;-95
2023/05/04 16:18:31;;;;;;;4.45;3.78;;;20.60;16.40;;;;;;5058910;23;20239;-95
2023/05/04 16:20:58;;;;;;;4.35;3.78;;;20.60;16.30;;;;;;5000294;28;20200;-96
2023/05/04 16:26:01;;;;;;;5.97;3.88;;;20.60;15.80;;;;;;5095966;22;20231;-95
2023/05/04 16:32:18;;;;;;;6.03;4.20;;;20.50;16.90;;;;;;5000811;28;20263;-92
2023/05/04 16:34:45;;;;;;;6.95;3.55;;;20.40;16.50;;;;;;5000061;28;20212;-95
2023/05/04 16:45:12;;;;;;;5.00;4.18;;;20.30;15.80;;;;;;4965989;28;20200;-91
2023/05/04 16:47:39;;;;;;;4.95;3.70;;;20.30;15.90;;;;;;4999885;28;20234;-95
2023/05/04 16:50:08;;;;;;;4.32;3.92;;;20.10;16.30;;;;;;5019918;28;20222;-96
2023/05/04 16:52:35;;;;;;;4.90;3.97;;;20.00;16.50;;;;;;5023277;28;20282;-95
2023/05/04 16:55:07;;;;;;;8.18;4.20;;;20.00;16.70;;;;;;4991042;28;20222;-95
2023/05/04 16:57:38;;;;;;;6.13;4.00;;;19.90;16.40;;;;;;4998533;28;20203;-95
2023/05/04 17:00:06;;;;;;;7.05;4.00;;;19.80;16.70;;;;;;4982980;28;20223;-96
2023/05/04 17:02:33;;;;;;;7.38;4.00;;;19.80;16.90;;;;;;5015451;28;20283;-95
2023/05/04 17:05:00;;;;;;;6.55;4.10;;;19.60;17.40;;;;;;5007273;28;20203;-96
2023/05/04 17:07:27;;;;;;;5.43;4.10;;;19.50;17.40;;;;;;5017556;28;20258;-95
2023/05/04 17:09:54;;;;;;;4.68;4.05;;;19.50;17.60;;;;;;4985900;28;20231;-95
2023/05/04 17:12:22;;;;;;;5.72;3.53;;;19.40;17.90;;;;;;4998466;28;20286;-95
2023/05/04 17:17:39;;;;;;;4.30;3.50;;;19.20;17.90;;;;;;5015365;28;20219;-94
2023/05/04 17:20:13;;;;;;;4.90;3.70;;;19.20;18.10;;;;;;4982909;28;20207;-95
2023/05/04 17:22:40;;;;;;;5.25;3.80;;;19.00;18.70;;;;;;4986988;28;20207;-96
2023/05/04 17:25:08;;;;;;;6.35;3.38;;;18.90;19.60;;;;;;5013480;28;20184;-96
2023/05/04 17:27:35;;;;;;;5.07;4.20;;;18.80;19.50;;;;;;4985397;28;20606;-93
2023/05/04 17:32:45;;;;;;;6.20;3.80;;;18.60;19.50;;;;;;5001781;28;20646;-93
2023/05/04 17:35:12;;;;;;;5.97;3.85;;;18.50;20.00;;;;;;5012460;28;20294;-92
2023/05/04 17:37:39;;;;;;;5.55;3.45;;;18.40;21.20;;;;;;5011622;28;20235;-92
2023/05/04 17:47:53;;;;;;;4.85;3.70;;;18.10;21.60;;;;;;5759386;23;20222;-92
2023/05/04 17:50:23;;;;;;;5.40;4.22;;;18.00;22.20;;;;;;5004752;28;20184;-92
2023/05/04 17:52:54;;;;;;;6.55;3.80;;;18.00;21.90;;;;;;5002109;28;20243;-91
2023/05/04 17:55:22;;;;;;;7.85;3.83;;;17.80;22.20;;;;;;5007119;28;20251;-95
2023/05/04 17:57:49;;;;;;;7.78;4.30;;;17.80;22.70;;;;;;4999567;28;20633;-94
2023/05/04 18:00:18;;;;;;;5.40;3.70;;;17.60;23.10;;;;;;4999832;28;20204;-92
2023/05/04 18:02:45;;;;;;;6.90;3.90;;;17.70;23.50;;;;;;5005124;28;20204;-93
2023/05/04 18:05:14;;;;;;;7.13;3.90;;;17.60;24.40;;;;;;5006236;28;20231;-94
2023/05/04 18:07:41;;;;;;;5.03;3.35;;;17.40;23.50;;;;;;4979937;28;20220;-94
2023/05/04 18:10:09;;;;;;;5.93;3.75;;;17.30;23.90;;;;;;5000034;28;20236;-94
2023/05/04 18:12:37;;;;;;;6.43;3.88;;;17.20;24.50;;;;;;4984431;28;20207;-94
2023/05/04 18:15:06;;;;;;;8.32;3.58;;;17.10;24.90;;;;;;4990977;28;20207;-94
2023/05/04 18:17:33;;;;;;;4.85;3.50;;;17.00;25.20;;;;;;4984529;28;20221;-94
2023/05/04 18:20:00;;;;;;;4.80;3.22;;;16.90;25.10;;;;;;4965218;28;20925;-93
2023/05/04 18:22:29;;;;;;;4.50;3.70;;;16.80;26.20;;;;;;4956729;28;20215;-93
2023/05/04 18:24:56;;;;;;;6.20;3.70;;;16.80;28.00;;;;;;4944123;28;20566;-94
2023/05/04 18:27:23;;;;;;;5.93;3.60;;;16.70;26.70;;;;;;4987496;28;20272;-93
2023/05/04 18:29:51;;;;;;;8.40;3.40;;;16.60;27.50;;;;;;4972036;28;20199;-92
2023/05/04 18:32:20;;;;;;;13.07;3.83;;;16.50;28.20;;;;;;4956117;28;20208;-94
2023/05/04 18:34:50;;;;;;;8.27;3.70;;;16.40;29.10;;;;;;4979052;28;20215;-94
2023/05/04 18:37:17;;;;;;;6.88;3.83;;;16.30;29.00;;;;;;4959544;28;20408;-94
2023/05/04 18:39:46;;;;;;;7.47;3.78;;;16.10;28.80;;;;;;4956147;28;20564;-94
2023/05/04 18:42:13;;;;;;;6.28;3.88;;;16.10;28.80;;;;;;4957665;28;20205;-93
2023/05/04 18:44:40;;;;;;;5.70;3.83;;;16.10;28.80;;;;;;4973568;28;20684;-94
2023/05/04 18:47:07;;;;;;;4.68;3.90;;;16.00;28.70;;;;;;4975011;28;20200;-93
2023/05/04 18:49:34;;;;;;;5.72;3.65;;;15.90;28.60;;;;;;4973774;28;20225;-94
2023/05/04 18:52:01;;;;;;;6.03;4.15;;;15.90;28.60;;;;;;4957134;28;20287;-94
2023/05/04 18:54:29;;;;;;;5.50;4.00;;;15.90;28.60;;;;;;4977758;28;20237;-94
2023/05/04 18:56:58;;;;;;;4.05;3.42;;;15.90;28.60;;;;;;4952837;28;20275;-94
2023/05/04 18:59:25;;;;;;;6.25;3.80;;;16.00;28.70;;;;;;4956917;28;20206;-94
2023/05/04 19:01:52;;;;;;;5.57;3.50;;;15.90;28.60;;;;;;4954213;28;20568;-94
2023/05/04 19:04:19;;;;;;;4.55;3.30;;;15.80;28.50;;;;;;4959793;28;20221;-94
2023/05/04 19:06:50;;;;;;;4.15;3.75;;;15.80;28.50;;;;;;4972955;28;20642;-93
2023/05/04 19:09:17;;;;;;;5.80;3.75;;;15.80;28.50;;;;;;4975205;28;20227;-94
2023/05/04 19:11:45;;;;;;;7.72;3.65;;;15.70;28.40;;;;;;4974084;28;20208;-94
2023/05/04 19:14:14;;;;;;;9.05;3.63;;;15.50;28.30;;;;;;4975478;28;20208;-95
2023/05/04 19:16:41;;;;;;;7.60;3.50;;;15.40;28.20;;;;;;4974488;28;20200;-94
2023/05/04 19:19:08;;;;;;;5.80;3.97;;;15.40;28.20;;;;;;4974810;28;20229;-93
2023/05/04 19:21:35;;;;;;;4.25;3.25;;;15.50;28.30;;;;;;4962004;28;20225;-94
2023/05/04 19:24:02;;;;;;;7.07;3.28;;;15.40;28.20;;;;;;4953313;28;20205;-94
2023/05/04 19:26:29;;;;;;;5.65;3.60;;;15.30;28.10;;;;;;4956825;28;20207;-95
2023/05/04 19:28:56;;;;;;;8.30;3.53;;;15.20;28.00;;;;;;4977952;28;20228;-94
2023/05/04 19:31:24;;;;;;;5.00;3.35;;;15.20;28.10;;;;;;4952852;28;20211;-94
2023/05/04 19:33:51;;;;;;;5.30;3.67;;;15.20;28.00;;;;;;4962040;28;20205;-94
2023/05/04 19:36:18;;;;;;;4.53;3.70;;;15.10;28.00;;;;;;4971147;28;20197;-93
2023/05/04 19:38:45;;;;;;;5.50;3.80;;;15.00;27.90;;;;;;4993037;28;20201;-93
2023/05/04 19:41:13;;;;;;;5.65;3.70;;;15.00;27.90;;;;;;4994541;28;20228;-92
2023/05/04 19:43:41;;;;;;;6.03;3.80;;;14.90;29.00;;;;;;4967712;28;20240;-94
2023/05/04 19:46:08;;;;;;;6.28;4.05;;;14.90;29.10;;;;;;4986427;28;20260;-89
2023/05/04 19:48:38;;;;;;;5.68;3.05;;;14.80;29.00;;;;;;4985313;28;20216;-93
2023/05/04 19:51:05;;;;;;;4.95;3.65;;;14.70;29.80;;;;;;4976482;28;20219;-93
2023/05/04 19:53:32;;;;;;;6.63;3.55;;;14.70;30.00;;;;;;4988064;28;20218;-94
2023/05/04 19:55:59;;;;;;;5.45;3.53;;;14.60;30.40;;;;;;4952785;28;20208;-95
2023/05/04 19:58:27;;;;;;;5.88;3.70;;;14.60;30.60;;;;;;4951061;28;20533;-94
2023/05/04 20:00:54;;;;;;;4.55;3.80;;;14.50;31.20;;;;;;4977605;28;20295;-95
2023/05/04 20:03:21;;;;;;;10.57;3.75;;;14.50;32.00;;;;;;4961292;28;20201;-93
2023/05/04 20:05:50;;;;;;;7.28;4.55;;;14.40;32.10;;;;;;4978070;28;20243;-94
2023/05/04 20:08:17;;;;;;;10.77;7.75;;;14.30;33.70;;;;;;4987949;28;20217;-95
2023/05/04 20:10:45;;;;;;;6.65;4.72;;;14.30;32.00;;;;;;4965283;28;20295;-94
2023/05/04 20:13:12;;;;;;;10.35;4.80;;;14.20;31.80;;;;;;4983527;28;20207;-95
2023/05/04 20:15:39;;;;;;;8.38;4.15;;;14.10;32.60;;;;;;4980125;28;20280;-95
2023/05/04 20:18:07;;;;;;;6.55;3.88;;;14.00;32.90;;;;;;4966505;28;20232;-95
2023/05/04 20:20:34;;;;;;;8.68;4.30;;;14.00;33.70;;;;;;4973605;28;20208;-95
2023/05/04 20:23:02;;;;;;;6.55;4.05;;;13.90;32.80;;;;;;4954139;28;20207;-96
2023/05/04 20:25:30;;;;;;;6.60;4.20;;;13.90;32.90;;;;;;4983228;28;20208;-94
2023/05/04 20:27:57;;;;;;;6.97;4.20;;;13.90;33.10;;;;;;4979366;28;20277;-94
2023/05/04 20:30:26;;;;;;;10.55;3.78;;;13.80;33.50;;;;;;4984471;28;20207;-95
2023/05/04 20:32:53;;;;;;;5.88;3.25;;;13.80;33.70;;;;;;4975384;28;20208;-95
2023/05/04 20:35:20;;;;;;;7.13;3.58;;;13.70;33.60;;;;;;4967290;28;20206;-94
2023/05/04 20:37:48;;;;;;;4.07;3.47;;;13.70;34.00;;;;;;4952556;28;20248;-94
2023/05/04 20:40:17;;;;;;;5.22;3.55;;;13.60;35.90;;;;;;4984615;28;20214;-96
2023/05/04 20:42:44;;;;;;;5.75;3.45;;;13.60;36.00;;;;;;4985372;28;20201;-95
2023/05/04 20:45:11;;;;;;;10.13;3.92;;;13.50;36.00;;;;;;4966070;28;20205;-92
2023/05/04 20:47:40;;;;;;;5.47;4.00;;;13.50;36.30;;;;;;4983565;28;20209;-95
2023/05/04 20:50:08;;;;;;;6.63;3.53;;;13.40;36.90;;;;;;4987891;28;20201;-95
2023/05/04 20:52:37;;;;;;;6.63;4.00;;;13.40;40.00;;;;;;4980314;28;20633;-94
2023/05/04 20:55:06;;;;;;;5.20;3.70;;;13.40;40.60;;;;;;4986843;28;20195;-94
2023/05/04 20:57:35;;;;;;;5.63;3.65;;;13.30;41.70;;;;;;4968153;28;20209;-94
2023/05/04 21:00:02;;;;;;;7.18;3.92;;;13.20;42.10;;;;;;4960239;28;20197;-94
2023/05/04 21:02:29;;;;;;;5.65;3.78;;;13.20;44.30;;;;;;4964445;28;20732;-94
2023/05/04 21:04:56;;;;;;;6.18;3.65;;;13.20;47.50;;;;;;4959676;28;20299;-95
2023/05/04 21:07:23;;;;;;;6.15;4.10;;;13.10;49.60;;;;;;4955031;28;20214;-94
2023/05/04 21:09:56;;;;;;;5.70;4.05;;;13.00;49.60;;;;;;4993602;28;20228;-95
2023/05/04 21:12:23;;;;;;;7.00;3.80;;;13.00;50.90;;;;;;4965438;28;20201;-94
2023/05/04 21:14:51;;;;;;;6.90;3.92;;;13.00;49.60;;;;;;4956314;28;20201;-93
2023/05/04 21:17:19;;;;;;;5.68;3.95;;;12.90;50.40;;;;;;4942731;29;20241;-94
2023/05/04 21:19:45;;;;;;;5.75;4.22;;;12.80;53.90;;;;;;4980267;28;20196;-94
2023/05/04 21:22:16;;;;;;;6.32;4.10;;;12.70;54.60;;;;;;4962104;28;20204;-94
2023/05/04 21:24:45;;;;;;;7.75;4.30;;;12.70;55.90;;;;;;4965207;28;20241;-94
2023/05/04 21:27:13;;;;;;;7.65;4.18;;;12.60;58.90;;;;;;4968580;28;20231;-93
2023/05/04 21:29:40;;;;;;;5.68;4.13;;;12.50;59.20;;;;;;4958213;28;20243;-94
2023/05/04 21:32:09;;;;;;;6.05;3.58;;;12.50;59.70;;;;;;4951440;28;20246;-93
2023/05/04 21:34:35;;;;;;;6.43;4.55;;;12.40;61.90;;;;;;4976428;28;20212;-93
2023/05/04 21:37:03;;;;;;;6.82;3.90;;;12.40;65.20;;;;;;4981460;28;20204;-93
2023/05/04 21:39:30;;;;;;;4.53;3.80;;;12.40;66.90;;;;;;4968785;28;20236;-93
2023/05/04 21:41:58;;;;;;;7.70;3.90;;;12.50;68.40;;;;;;4989403;28;20292;-93
2023/05/04 21:44:25;;;;;;;8.43;4.00;;;12.50;65.80;;;;;;4961001;28;20201;-94
2023/05/04 21:46:51;;;;;;;6.78;3.80;;;12.40;64.10;;;;;;4985771;28;20205;-94
2023/05/04 21:49:20;;;;;;;7.45;3.97;;;12.40;63.10;;;;;;4981479;28;20238;-94
2023/05/04 21:51:47;;;;;;;5.57;3.83;;;12.30;66.70;;;;;;4961518;28;20204;-94
2023/05/04 21:54:14;;;;;;;8.48;4.38;;;12.30;70.10;;;;;;4997618;28;20264;-93
2023/05/04 21:56:42;;;;;;;8.80;4.05;;;12.30;70.50;;;;;;4969733;28;20255;-92
2023/05/04 21:59:08;;;;;;;4.78;3.67;;;12.20;66.50;;;;;;4981195;28;20192;-92
2023/05/04 22:01:36;;;;;;;4.65;4.00;;;12.20;67.30;;;;;;4981884;28;20811;-93
2023/05/04 22:04:05;;;;;;;6.65;4.38;;;12.10;67.60;;;;;;4972211;28;20224;-94
2023/05/04 22:06:34;;;;;;;6.50;4.25;;;12.20;69.50;;;;;;4973380;28;20209;-93
2023/05/04 22:09:02;;;;;;;7.15;4.38;;;12.20;68.80;;;;;;4967677;28;20240;-93
2023/05/04 22:11:29;;;;;;;5.80;4.15;;;12.10;69.50;;;;;;4953350;28;20212;-93
2023/05/04 22:13:56;;;;;;;4.97;4.13;;;12.00;72.50;;;;;;4981458;28;20260;-93
2023/05/04 22:16:24;;;;;;;7.35;4.20;;;12.00;75.20;;;;;;4964028;28;20239;-94
2023/05/04 22:18:51;;;;;;;6.00;4.38;;;11.90;75.10;;;;;;4986403;28;20216;-93
2023/05/04 22:21:18;;;;;;;5.75;4.25;;;11.80;76.00;;;;;;4970825;28;20292;-93
2023/05/04 22:23:46;;;;;;;8.57;4.15;;;11.80;78.80;;;;;;4965386;28;20213;-94
2023/05/04 22:26:13;;;;;;;7.10;4.30;;;11.80;80.40;;;;;;4977403;28;20201;-92
2023/05/04 22:28:40;;;;;;;7.90;4.30;;;11.80;79.70;;;;;;4980569;28;20298;-93
2023/05/04 22:31:07;;;;;;;5.78;4.40;;;11.80;80.70;;;;;;4966705;28;20197;-93
2023/05/04 22:33:34;;;;;;;4.95;4.05;;;11.70;81.40;;;;;;4960036;28;20276;-94
2023/05/04 22:36:01;;;;;;;6.78;4.60;;;11.70;81.30;;;;;;4954337;28;20575;-93
2023/05/04 22:38:28;;;;;;;6.00;4.70;;;11.70;81.70;;;;;;4970771;28;20205;-92
2023/05/04 22:40:57;;;;;;;7.60;4.82;;;11.70;81.50;;;;;;4978504;28;20197;-94
2023/05/04 22:43:24;;;;;;;7.72;4.25;;;11.70;82.20;;;;;;4959817;28;20212;-93
2023/05/04 22:45:51;;;;;;;7.95;4.85;;;11.60;83.70;;;;;;4993478;28;20200;-94
2023/05/04 22:48:18;;;;;;;7.35;4.70;;;11.50;84.40;;;;;;4966639;28;20270;-93
2023/05/04 22:50:45;;;;;;;8.07;4.72;;;11.40;84.00;;;;;;4969396;28;20232;-94
2023/05/04 22:53:13;;;;;;;6.47;4.65;;;11.40;85.90;;;;;;4980561;28;20215;-93
2023/05/04 22:55:40;;;;;;;7.53;4.95;;;11.30;86.30;;;;;;4986912;28;20259;-93
2023/05/04 22:58:11;;;;;;;6.60;5.30;;;11.30;87.10;;;;;;4987848;28;20653;-93
2023/05/04 23:00:38;;;;;;;7.65;5.80;;;11.30;87.80;;;;;;4987412;28;20203;-94
2023/05/04 23:03:05;;;;;;;5.88;4.68;;;11.30;88.50;;;;;;4972873;28;20191;-93
2023/05/04 23:05:32;;;;;;;6.13;5.20;;;11.20;88.80;;;;;;4985215;28;20197;-94
2023/05/04 23:07:59;;;;;;;6.30;5.00;;;11.20;88.60;;;;;;4974667;28;20202;-93
2023/05/04 23:10:26;;;;;;;7.68;5.20;;;11.20;89.90;;;;;;4966021;28;20253;-93
2023/05/04 23:12:53;;;;;;;11.88;5.88;;;11.20;90.10;;;;;;4990871;28;20197;-95
2023/05/04 23:15:23;;;;;;;10.18;5.80;;;11.20;90.10;;;;;;4986612;28;20204;-94
2023/05/04 23:17:51;;;;;;;10.52;5.63;;;11.20;90.40;;;;;;4994745;28;20228;-94
2023/05/04 23:20:18;;;;;;;12.15;5.97;;;11.20;90.50;;;;;;4957738;29;20212;-94
2023/05/04 23:22:45;;;;;;;7.60;5.20;;;11.10;90.50;;;;;;4965990;28;20220;-93
2023/05/04 23:25:12;;;;;;;7.65;5.50;;;11.10;90.50;;;;;;4961459;28;20263;-93
2023/05/04 23:27:39;;;;;;;7.18;5.78;;;11.10;90.50;;;;;;4964756;28;20205;-93
2023/05/04 23:30:07;;;;;;;5.82;5.22;;;11.10;90.50;;;;;;4977583;28;20291;-93
2023/05/04 23:32:35;;;;;;;8.10;5.55;;;11.00;90.50;;;;;;4986202;28;20209;-94
2023/05/04 23:35:03;;;;;;;6.78;6.03;;;11.00;90.50;;;;;;4994318;28;20315;-89
2023/05/04 23:37:31;;;;;;;8.88;5.88;;;11.00;90.50;;;;;;4952122;28;20287;-93
2023/05/04 23:39:58;;;;;;;7.43;5.65;;;11.00;90.50;;;;;;4968234;28;20256;-94
2023/05/04 23:42:26;;;;;;;8.45;6.28;;;11.00;90.50;;;;;;4989839;28;20650;-93
2023/05/04 23:44:54;;;;;;;8.88;6.20;;;11.00;90.50;;;;;;4968083;28;20211;-93
2023/05/04 23:47:21;;;;;;;8.75;5.95;;;11.00;90.50;;;;;;4984256;28;20216;-94
2023/05/04 23:49:49;;;;;;;7.25;6.20;;;11.00;90.50;;;;;;4980858;28;20216;-94
2023/05/04 23:52:16;;;;;;;8.60;6.13;;;11.00;90.50;;;;;;4967975;28;20220;-93
2023/05/04 23:54:43;;;;;;;7.45;6.35;;;11.00;90.50;;;;;;4981496;28;20201;-93